Decherd, TN (37324)

1:56 AM CST on January 28, 2015 (GMT -0600)
Decherd | Change Station
CLOSE
Current Station
Personal Weather Station
Location: Decherd, TN
Elevation: 915 ft
Nearby Weather Stations

Elev 915 ft 35.20 °N, 86.09 °W | Updated 12 minutes ago

Overcast
Overcast
33.7 °F
Feels Like 34 °F
N
1.0
Wind Variable Wind from NE
Gusts 8.0 mph

Today
High -- | Low -- °F
--% Chance of Precip.
Yesterday
High -- | Low -- °F
Precip. -- in
6:46 AM 5:08 PM
Waxing Gibbous, 62% visible
Pressure 30.20 in
Visibility 10.0 miles
Clouds Overcast 1900 ft
Windchill 34 °F
Dew Point 26 °F
Humidity 73%
Rainfall 0.00 in
Snow Depth Not available.
UV 0 out of 12
Pollen .40 out of 12
Air Quality Not available.
Flu Activity Not available.
METAR KBGF 280735Z AUTO 02008KT 10SM OVC019 00/M03 A3020 RMK

More Conditions Fewer Conditions

Pressure 30.20 in
Visibility 10.0 miles
Clouds Overcast 1900 ft
Windchill 34 °F
Dew Point 26 °F
Humidity 73%
Rainfall 0.00 in
Snow Depth Not available.
UV 0 out of 12
Pollen .40 out of 12
Air Quality Not available.
Flu Activity Not available.
METAR KBGF 280735Z AUTO 02008KT 10SM OVC019 00/M03 A3020 RMK

More Conditions Fewer Conditions

10-Day Weather Forecast

Almanac

Astronomy

Jan. 28, 2015 Rise Set
Actual Time
Civil Twilight
Nautical Twilight
Astronomical Twilight
Moon
Length of Visible Light
Length of Day
Tomorrow will be .
, % of the Moon is Illuminated

Today's Extremes

State Highs State Lows

Community

WunderPhotos

Upload Photos

1,791,117 photos uploaded!

WunderBlogs® & News

Nearby

Air Quality

  Air Quality AQ Index Pollutant
Not available.

Snow Depth

Station Depth Elevation

Earthquake Activity

City Distance Mag. Time & Date
Minimum magnitude displayed is 2.5.

Coastal Water Temperatures

Place Temperature

Nearby Weather Stations